East Carbon, Utah
Current Conditions -  °F | °C
As of 10:53 AM on Thursday 23 Oct 2014 (Local Time) from KPUC Reporting Station
Clear Clear  
Wind Chill: 57°   Ceiling: Unl
Heat Index: 57°   Visibility: 10mi
Dew Point: 31°   Wind: 6mph
Humidity: 37%   Direction: 100°E
Pressure: 30.29"   Gusts: NA
Location:  39.55°N, 110.41°W
Report Text: KPUC 231653Z AUTO 10005KT 10SM CLR 14/M01 A3029 RMK AO2 SLP228 T01391006 TSNO
Loading
Personal Weather Stations






























Interactive Weather Map
Tropical Storm Tracking
New forecast layout! Learn more

10-Day Weather Forecast

Advertisements
Track Severe Weather on mobile